Time;durP1;ratioP1;P1;durP2;ratioP2;P2;SDS_P1;SDS_P2;PMS_P1;PMS_P2;Temp;Humidity;BMP_temperature;BMP_pressure;BME280_temperature;BME280_humidity;BME280_pressure;Samples;Min_cycle;Max_cycle;Signal;HPM_P1;HPM_P2
2022/10/31 00:01:22;;;;;;;4.22;0.70;;;26.50;72.90;;;;;;5006414;28;20385;-87
2022/10/31 00:03:49;;;;;;;4.20;0.88;;;26.40;72.50;;;;;;5001310;28;20391;-85
2022/10/31 00:06:18;;;;;;;2.55;0.85;;;26.30;73.30;;;;;;5007467;28;20432;-84
2022/10/31 00:09:00;;;;;;;3.50;0.90;;;26.30;72.80;;;;;;5013971;28;20372;-84
2022/10/31 00:11:27;;;;;;;2.67;0.90;;;26.30;74.00;;;;;;5013939;28;20403;-88
2022/10/31 00:13:54;;;;;;;2.28;0.70;;;26.20;73.90;;;;;;5018925;28;20397;-87
2022/10/31 00:16:23;;;;;;;3.08;1.10;;;26.20;74.30;;;;;;5012012;28;20388;-89
2022/10/31 00:18:56;;;;;;;3.08;0.85;;;26.20;74.40;;;;;;5010590;28;20416;-84
2022/10/31 00:21:24;;;;;;;4.28;1.70;;;26.30;74.50;;;;;;5005277;28;20368;-86
2022/10/31 00:23:54;;;;;;;3.92;0.90;;;26.50;75.20;;;;;;5004502;28;20882;-86
2022/10/31 00:26:21;;;;;;;2.50;0.70;;;27.00;74.00;;;;;;5007541;28;20424;-85
2022/10/31 00:28:48;;;;;;;2.97;0.60;;;27.40;74.30;;;;;;5004338;28;20379;-86
2022/10/31 00:31:17;;;;;;;4.78;0.80;;;27.90;71.70;;;;;;5001979;28;20385;-86
2022/10/31 00:33:47;;;;;;;2.20;0.60;;;28.20;71.80;;;;;;4996656;28;20887;-88
2022/10/31 00:36:17;;;;;;;1.50;0.60;;;28.30;70.30;;;;;;4996072;28;20454;-90
2022/10/31 00:38:45;;;;;;;4.68;0.73;;;28.50;69.30;;;;;;4995276;28;20448;-90
2022/10/31 00:41:14;;;;;;;2.72;0.80;;;28.60;69.90;;;;;;4995275;28;20384;-87
2022/10/31 00:43:42;;;;;;;2.88;0.73;;;28.80;69.00;;;;;;4995576;28;20381;-88
2022/10/31 00:46:10;;;;;;;2.08;0.70;;;28.90;67.80;;;;;;4995489;28;20385;-88
2022/10/31 00:48:37;;;;;;;1.52;0.70;;;29.10;67.70;;;;;;5003740;28;20921;-88
2022/10/31 00:51:05;;;;;;;2.70;0.60;;;29.30;67.40;;;;;;5002242;28;20412;-91
2022/10/31 00:53:32;;;;;;;2.63;0.70;;;29.50;67.50;;;;;;5012813;28;20392;-92
2022/10/31 00:55:59;;;;;;;2.45;0.70;;;29.70;67.00;;;;;;4995802;28;20737;-89
2022/10/31 00:58:28;;;;;;;1.85;0.70;;;29.60;66.30;;;;;;4995230;28;20419;-92
2022/10/31 01:00:55;;;;;;;2.17;0.63;;;29.50;67.60;;;;;;4995436;28;20409;-87
2022/10/31 01:03:25;;;;;;;2.03;0.70;;;29.40;67.40;;;;;;4995073;28;20388;-87
2022/10/31 01:06:00;;;;;;;3.40;1.60;;;29.50;67.10;;;;;;4995125;28;20861;-85
2022/10/31 01:08:29;;;;;;;9.73;3.50;;;29.60;66.90;;;;;;4995223;28;20388;-91
2022/10/31 01:11:02;;;;;;;4.57;1.48;;;29.70;67.10;;;;;;4995018;28;20388;-87
2022/10/31 01:13:29;;;;;;;6.00;0.90;;;30.00;68.00;;;;;;4997855;28;20451;-87
2022/10/31 01:15:57;;;;;;;6.07;0.98;;;30.20;67.90;;;;;;5004931;28;20389;-85
2022/10/31 01:18:25;;;;;;;6.32;1.10;;;30.50;66.60;;;;;;4994570;28;20436;-86
2022/10/31 01:21:00;;;;;;;6.63;1.17;;;30.50;66.40;;;;;;4994263;28;20385;-87
2022/10/31 01:23:28;;;;;;;6.90;1.05;;;30.20;66.10;;;;;;4994820;28;20387;-87
2022/10/31 01:26:01;;;;;;;8.00;1.08;;;29.90;66.80;;;;;;4994738;28;20392;-89
2022/10/31 01:28:28;;;;;;;3.90;0.73;;;29.80;67.00;;;;;;4994547;28;20377;-88
2022/10/31 01:30:55;;;;;;;4.90;0.90;;;29.70;67.40;;;;;;4994791;28;20711;-90
2022/10/31 01:33:22;;;;;;;2.88;0.52;;;29.50;67.90;;;;;;4994695;28;20452;-87
2022/10/31 01:35:49;;;;;;;4.32;0.85;;;29.40;68.50;;;;;;4994259;28;20384;-87
2022/10/31 01:38:16;;;;;;;6.47;0.80;;;29.10;69.00;;;;;;5009439;28;20496;-86
2022/10/31 01:40:43;;;;;;;5.00;0.90;;;29.00;69.20;;;;;;4994126;28;20475;-91
2022/10/31 01:43:13;;;;;;;10.38;0.90;;;28.60;68.70;;;;;;4992837;28;20450;-86
2022/10/31 01:45:46;;;;;;;5.63;0.70;;;28.20;69.40;;;;;;4994121;28;20377;-88
2022/10/31 01:48:17;;;;;;;5.60;0.63;;;27.90;68.90;;;;;;4993931;28;20872;-84
2022/10/31 01:50:48;;;;;;;2.25;0.88;;;27.60;70.50;;;;;;4993779;28;20710;-85
2022/10/31 01:53:16;;;;;;;0.73;0.50;;;27.00;72.60;;;;;;4994319;28;20384;-86
2022/10/31 01:55:46;;;;;;;1.80;0.32;;;26.70;73.80;;;;;;4994016;28;20384;-88
2022/10/31 01:58:19;;;;;;;0.70;0.40;;;26.50;76.60;;;;;;4993950;28;20412;-85
2022/10/31 02:00:50;;;;;;;0.93;0.40;;;25.20;82.90;;;;;;4994548;28;20459;-87
2022/10/31 02:03:18;;;;;;;1.77;0.45;;;24.50;87.60;;;;;;4995001;28;20512;-87
2022/10/31 02:05:46;;;;;;;0.40;0.40;;;24.50;90.00;;;;;;4999753;28;20933;-89
2022/10/31 02:08:29;;;;;;;0.83;0.50;;;24.60;90.10;;;;;;5003740;28;20483;-86
2022/10/31 02:11:01;;;;;;;0.70;0.50;;;25.00;89.30;;;;;;4997836;28;20863;-85
2022/10/31 02:13:29;;;;;;;1.90;0.52;;;25.40;89.50;;;;;;5000388;28;20377;-84
2022/10/31 02:16:00;;;;;;;0.80;0.60;;;25.60;88.30;;;;;;4998716;28;20379;-84
2022/10/31 02:18:30;;;;;;;0.70;0.50;;;25.80;87.10;;;;;;5010132;28;20411;-86
2022/10/31 02:21:22;;;;;;;1.42;0.70;;;26.00;86.40;;;;;;4997985;28;20457;-86
2022/10/31 02:24:01;;;;;;;1.00;0.40;;;26.10;86.30;;;;;;4998913;28;20753;-83
2022/10/31 02:26:57;;;;;;;2.17;0.45;;;26.20;85.30;;;;;;5000539;28;20868;-85
2022/10/31 02:29:33;;;;;;;0.65;0.40;;;26.30;85.70;;;;;;4997377;28;20419;-84
2022/10/31 02:32:30;;;;;;;2.63;0.30;;;26.30;85.70;;;;;;5000049;28;20777;-85
2022/10/31 02:35:26;;;;;;;1.15;0.50;;;26.30;85.40;;;;;;5001171;28;20400;-86
2022/10/31 02:38:23;;;;;;;1.23;0.50;;;26.30;85.90;;;;;;5012578;28;20427;-87
2022/10/31 02:41:13;;;;;;;2.63;0.90;;;26.20;86.10;;;;;;4998379;28;20392;-86
2022/10/31 02:43:46;;;;;;;1.52;0.47;;;26.10;86.80;;;;;;5000271;28;20445;-86
2022/10/31 02:46:25;;;;;;;2.15;0.50;;;26.10;87.80;;;;;;4995784;28;20436;-88
2022/10/31 02:48:56;;;;;;;1.27;0.40;;;26.10;87.50;;;;;;4998660;28;20422;-89
2022/10/31 02:51:23;;;;;;;0.60;0.30;;;26.00;88.00;;;;;;5000952;28;20480;-89
2022/10/31 02:53:51;;;;;;;0.60;0.50;;;26.00;88.80;;;;;;4990475;28;20474;-89
2022/10/31 02:56:19;;;;;;;2.03;0.60;;;26.00;89.60;;;;;;4993240;28;20749;-89
2022/10/31 02:59:02;;;;;;;1.20;0.50;;;26.00;89.60;;;;;;4999001;28;20922;-88
2022/10/31 03:01:38;;;;;;;1.30;0.50;;;26.00;89.80;;;;;;4997852;28;20965;-87
2022/10/31 03:04:41;;;;;;;2.00;0.60;;;26.00;90.40;;;;;;5001827;28;20716;-87
2022/10/31 03:07:14;;;;;;;2.10;0.60;;;25.80;92.40;;;;;;4983184;28;20472;-88
2022/10/31 03:09:41;;;;;;;1.50;0.50;;;25.40;94.40;;;;;;4997842;28;20385;-89
2022/10/31 03:12:28;;;;;;;1.70;0.63;;;25.10;96.40;;;;;;4996023;28;20382;-89
2022/10/31 03:14:55;;;;;;;1.75;0.60;;;25.00;98.20;;;;;;5005385;28;20436;-88
2022/10/31 03:17:57;;;;;;;2.28;0.60;;;24.80;98.30;;;;;;4998694;28;20499;-86
2022/10/31 03:20:37;;;;;;;1.10;0.50;;;24.90;99.90;;;;;;4956229;28;20408;-87
2022/10/31 03:25:38;;;;;;;1.38;0.50;;;25.00;99.90;;;;;;5012248;28;20451;-86
2022/10/31 03:28:07;;;;;;;1.33;0.60;;;25.00;99.90;;;;;;5014450;28;20417;-90
2022/10/31 03:30:41;;;;;;;1.00;0.45;;;25.00;99.90;;;;;;5001530;28;20450;-86
2022/10/31 03:33:13;;;;;;;0.85;0.50;;;25.00;99.90;;;;;;4998382;28;20792;-86
2022/10/31 03:35:47;;;;;;;2.80;0.50;;;25.10;99.90;;;;;;4985337;28;20390;-86
2022/10/31 03:38:18;;;;;;;2.05;0.40;;;25.10;99.90;;;;;;4999408;28;20469;-86
2022/10/31 03:40:47;;;;;;;1.20;0.40;;;25.10;99.90;;;;;;5004839;28;20477;-87
2022/10/31 03:43:23;;;;;;;1.10;0.52;;;25.30;99.90;;;;;;4995955;28;20410;-88
2022/10/31 03:45:51;;;;;;;1.13;0.40;;;25.50;99.90;;;;;;5013130;28;20405;-86
2022/10/31 03:48:20;;;;;;;0.95;0.40;;;25.60;99.90;;;;;;5000125;28;20402;-84
2022/10/31 03:51:10;;;;;;;1.50;0.40;;;25.60;99.90;;;;;;5008914;28;20468;-86
2022/10/31 03:54:03;;;;;;;0.50;0.40;;;25.70;99.90;;;;;;4977098;28;20398;-85
2022/10/31 03:56:45;;;;;;;1.50;0.40;;;25.50;99.90;;;;;;4974416;28;20386;-84
2022/10/31 03:59:29;;;;;;;0.80;0.40;;;25.30;99.90;;;;;;4970279;28;20407;-83
2022/10/31 04:02:02;;;;;;;0.70;0.40;;;25.40;99.90;;;;;;4978893;28;20380;-87
2022/10/31 04:04:30;;;;;;;0.40;0.40;;;25.40;99.70;;;;;;4957598;28;20389;-85
2022/10/31 04:06:59;;;;;;;1.38;0.40;;;25.50;98.10;;;;;;4966650;28;20446;-87
2022/10/31 04:09:30;;;;;;;1.70;0.50;;;25.50;97.80;;;;;;4957021;28;22450;-87
2022/10/31 04:12:00;;;;;;;2.80;0.40;;;25.50;97.40;;;;;;4976036;28;20858;-84
2022/10/31 04:14:30;;;;;;;1.30;0.40;;;25.50;97.00;;;;;;4970552;28;20401;-85
2022/10/31 04:16:57;;;;;;;1.48;0.35;;;25.50;96.80;;;;;;4958824;28;20408;-84
2022/10/31 04:19:25;;;;;;;0.82;0.40;;;25.50;97.20;;;;;;4977559;28;20830;-85
2022/10/31 04:21:52;;;;;;;1.45;0.40;;;25.60;97.10;;;;;;4957513;28;20929;-84
2022/10/31 04:24:19;;;;;;;0.77;0.40;;;25.60;96.90;;;;;;4975795;28;20505;-86
2022/10/31 04:26:46;;;;;;;0.30;0.30;;;25.70;96.50;;;;;;4984541;28;20392;-86
2022/10/31 04:29:15;;;;;;;0.73;0.30;;;25.80;96.00;;;;;;4971281;28;20416;-85
2022/10/31 04:31:42;;;;;;;0.40;0.40;;;25.90;95.60;;;;;;5011439;28;20397;-85
2022/10/31 04:34:09;;;;;;;1.63;0.40;;;26.00;95.80;;;;;;5000164;28;20404;-85
2022/10/31 04:36:36;;;;;;;0.90;0.30;;;26.00;95.50;;;;;;5001448;28;20389;-85
2022/10/31 04:39:04;;;;;;;2.70;0.47;;;25.90;95.80;;;;;;4995796;28;20413;-85
2022/10/31 04:41:31;;;;;;;0.60;0.40;;;25.80;95.80;;;;;;4982898;28;21040;-86
2022/10/31 04:43:58;;;;;;;1.17;0.40;;;25.80;95.80;;;;;;4974510;28;20481;-86
2022/10/31 04:46:25;;;;;;;2.08;0.43;;;25.70;96.10;;;;;;4991168;28;20395;-85
2022/10/31 04:48:51;;;;;;;2.88;0.50;;;25.60;96.30;;;;;;4994551;28;20434;-86
2022/10/31 04:51:18;;;;;;;1.70;0.30;;;25.60;95.90;;;;;;4996163;28;20385;-86
2022/10/31 04:53:45;;;;;;;1.48;0.47;;;25.70;95.20;;;;;;4989302;28;20403;-85
2022/10/31 04:56:13;;;;;;;0.93;0.40;;;25.70;95.40;;;;;;4997684;28;20381;-90
2022/10/31 04:58:40;;;;;;;3.95;0.45;;;25.70;95.40;;;;;;5032831;28;20906;-87
2022/10/31 05:01:10;;;;;;;2.15;0.32;;;25.70;95.10;;;;;;5017791;28;20795;-87
2022/10/31 05:03:41;;;;;;;3.22;0.40;;;25.70;94.70;;;;;;5003229;28;20388;-90
2022/10/31 05:06:09;;;;;;;1.08;0.50;;;25.70;94.60;;;;;;4992014;28;20800;-87
2022/10/31 05:08:36;;;;;;;0.68;0.32;;;25.80;94.60;;;;;;4998900;28;20417;-86
2022/10/31 05:11:04;;;;;;;0.82;0.30;;;26.00;94.10;;;;;;4989811;28;20401;-86
2022/10/31 05:13:32;;;;;;;2.40;0.30;;;26.20;93.90;;;;;;4995625;28;20469;-89
2022/10/31 05:15:59;;;;;;;0.80;0.30;;;26.90;93.40;;;;;;4998074;28;20473;-86
2022/10/31 05:18:26;;;;;;;0.30;0.20;;;28.10;91.20;;;;;;4995987;28;20613;-85
2022/10/31 05:20:53;;;;;;;1.80;0.33;;;28.40;89.40;;;;;;5013952;28;20383;-87
2022/10/31 05:23:20;;;;;;;1.13;0.30;;;28.20;87.60;;;;;;4989150;28;20381;-88
2022/10/31 05:25:47;;;;;;;1.80;0.50;;;27.90;88.70;;;;;;5000896;28;20403;-85
2022/10/31 05:28:14;;;;;;;1.00;0.40;;;27.70;88.90;;;;;;5003489;28;20411;-85
2022/10/31 05:30:41;;;;;;;1.20;0.40;;;27.40;90.00;;;;;;4983277;28;20387;-88
2022/10/31 05:33:09;;;;;;;1.60;0.40;;;27.20;90.80;;;;;;5002805;28;20815;-84
2022/10/31 05:35:37;;;;;;;0.70;0.40;;;26.90;90.50;;;;;;5015612;28;20513;-87
2022/10/31 05:38:04;;;;;;;1.17;0.50;;;26.80;90.90;;;;;;5007604;28;20388;-88
2022/10/31 05:40:35;;;;;;;0.90;0.50;;;26.90;91.00;;;;;;5018490;28;20387;-87
2022/10/31 05:43:03;;;;;;;2.65;0.45;;;26.80;91.10;;;;;;5014981;28;20391;-87
2022/10/31 05:45:30;;;;;;;0.50;0.50;;;26.90;91.00;;;;;;5010433;28;20363;-87
2022/10/31 05:47:59;;;;;;;2.83;2.00;;;26.90;90.80;;;;;;5004684;28;20401;-85
2022/10/31 05:50:28;;;;;;;0.63;0.60;;;27.00;90.50;;;;;;4999835;28;20416;-87
2022/10/31 05:53:04;;;;;;;1.95;1.60;;;27.00;90.30;;;;;;5005568;28;20393;-85
2022/10/31 05:55:33;;;;;;;1.42;0.70;;;26.90;90.50;;;;;;4995894;28;20436;-87
2022/10/31 05:58:00;;;;;;;2.77;1.33;;;26.70;90.40;;;;;;5000731;28;20401;-85
2022/10/31 06:00:28;;;;;;;0.82;0.70;;;26.70;90.60;;;;;;5002794;28;20408;-86
2022/10/31 06:03:08;;;;;;;2.20;1.00;;;26.50;90.80;;;;;;4990394;28;20395;-87
2022/10/31 06:05:37;;;;;;;1.80;0.70;;;26.40;91.10;;;;;;4996463;28;20407;-87
2022/10/31 06:08:06;;;;;;;1.77;0.80;;;26.40;91.30;;;;;;5008110;28;20420;-86
2022/10/31 06:10:33;;;;;;;0.93;0.63;;;26.40;91.50;;;;;;4997255;28;20438;-87
2022/10/31 06:13:00;;;;;;;1.48;0.70;;;26.40;91.50;;;;;;4997357;28;20388;-86
2022/10/31 06:15:30;;;;;;;1.10;0.70;;;26.30;91.70;;;;;;5002874;28;20391;-84
2022/10/31 06:18:05;;;;;;;0.90;0.70;;;26.30;92.10;;;;;;4999558;28;20776;-85
2022/10/31 06:20:33;;;;;;;1.60;0.65;;;26.30;92.10;;;;;;5015148;28;20456;-87
2022/10/31 06:23:00;;;;;;;1.50;0.77;;;26.20;92.10;;;;;;5005674;28;20391;-83
2022/10/31 06:25:30;;;;;;;0.70;0.65;;;26.20;92.30;;;;;;4995216;28;20407;-83
2022/10/31 06:27:57;;;;;;;0.73;0.60;;;26.20;92.50;;;;;;5004651;28;20379;-89
2022/10/31 06:30:24;;;;;;;0.88;0.60;;;26.20;92.50;;;;;;5012390;28;20806;-83
2022/10/31 06:32:52;;;;;;;2.28;0.75;;;26.20;93.00;;;;;;5007738;28;20757;-84
2022/10/31 06:35:19;;;;;;;1.33;0.60;;;26.10;93.00;;;;;;5005207;28;20396;-86
2022/10/31 06:37:55;;;;;;;1.05;0.50;;;26.00;93.20;;;;;;5002786;28;20530;-86
2022/10/31 06:40:25;;;;;;;1.45;0.60;;;26.00;93.30;;;;;;4997593;28;20393;-91
2022/10/31 06:43:01;;;;;;;0.52;0.52;;;25.90;93.60;;;;;;5002305;28;20896;-88
2022/10/31 06:45:30;;;;;;;1.90;0.67;;;25.90;93.40;;;;;;5002387;28;20393;-87
2022/10/31 06:47:58;;;;;;;1.10;0.50;;;25.80;93.70;;;;;;5002685;28;20381;-89
2022/10/31 06:50:25;;;;;;;0.93;0.55;;;25.80;93.70;;;;;;4995222;28;20465;-86
2022/10/31 06:52:58;;;;;;;1.48;0.60;;;25.80;93.70;;;;;;5005515;28;20902;-85
2022/10/31 06:55:27;;;;;;;0.82;0.70;;;25.80;93.70;;;;;;4994885;28;20389;-86
2022/10/31 06:58:01;;;;;;;1.20;0.65;;;25.70;93.70;;;;;;5009729;28;20400;-86
2022/10/31 07:00:29;;;;;;;2.15;0.80;;;25.70;94.00;;;;;;5002368;28;20396;-86
2022/10/31 07:03:05;;;;;;;1.30;1.00;;;25.70;94.00;;;;;;5000244;28;20400;-87
2022/10/31 07:05:34;;;;;;;1.30;0.90;;;25.60;94.10;;;;;;5016059;28;20404;-87
2022/10/31 07:08:04;;;;;;;1.00;1.00;;;25.60;94.00;;;;;;5003596;28;20389;-87
2022/10/31 07:10:33;;;;;;;0.98;0.80;;;25.60;94.40;;;;;;4998452;28;20471;-89
2022/10/31 07:13:03;;;;;;;1.00;0.70;;;25.60;94.20;;;;;;5000617;28;20949;-87
2022/10/31 07:15:34;;;;;;;1.05;0.70;;;25.70;94.20;;;;;;4997703;28;20395;-86
2022/10/31 07:18:02;;;;;;;0.60;0.60;;;25.70;94.20;;;;;;5002807;28;20503;-87
2022/10/31 07:20:30;;;;;;;0.98;0.70;;;25.80;93.80;;;;;;4987270;28;20436;-88
2022/10/31 07:22:57;;;;;;;1.60;0.60;;;25.80;93.50;;;;;;5013039;28;20472;-87
2022/10/31 07:25:24;;;;;;;1.23;0.65;;;25.80;93.60;;;;;;4979635;28;20906;-87
2022/10/31 07:27:52;;;;;;;1.38;0.75;;;25.80;93.70;;;;;;4991432;28;20383;-87
2022/10/31 07:30:19;;;;;;;1.00;0.70;;;25.80;93.70;;;;;;5005210;28;20808;-86
2022/10/31 07:32:48;;;;;;;1.30;0.70;;;25.80;93.80;;;;;;5008888;28;20786;-87
2022/10/31 07:35:21;;;;;;;2.72;0.70;;;25.70;93.80;;;;;;5001690;28;20387;-88
2022/10/31 07:37:48;;;;;;;0.70;0.70;;;25.70;93.80;;;;;;5000049;28;20383;-87
2022/10/31 07:40:16;;;;;;;1.05;0.80;;;25.70;93.70;;;;;;5003541;28;20417;-87
2022/10/31 07:42:45;;;;;;;1.73;0.80;;;25.80;93.00;;;;;;4991226;28;20385;-86
2022/10/31 07:45:19;;;;;;;1.75;0.77;;;26.00;92.10;;;;;;4989682;28;20387;-89
2022/10/31 07:47:51;;;;;;;1.60;0.80;;;26.10;91.70;;;;;;5011815;28;20382;-87
2022/10/31 07:50:23;;;;;;;3.08;0.85;;;26.20;91.60;;;;;;5005671;28;20521;-89
2022/10/31 07:53:07;;;;;;;0.80;0.80;;;26.20;91.40;;;;;;5011479;28;20383;-87
2022/10/31 07:55:35;;;;;;;1.93;0.80;;;26.20;91.40;;;;;;5029343;28;20462;-87
2022/10/31 07:58:05;;;;;;;1.63;0.80;;;26.20;91.40;;;;;;5013059;28;20379;-85
2022/10/31 08:00:36;;;;;;;1.58;0.80;;;26.10;91.80;;;;;;5008745;28;20389;-85
2022/10/31 08:03:12;;;;;;;1.42;0.75;;;25.90;92.40;;;;;;5009435;28;20389;-86
2022/10/31 08:05:40;;;;;;;1.80;0.70;;;25.80;92.80;;;;;;5012481;28;20466;-87
2022/10/31 08:08:09;;;;;;;1.30;0.70;;;25.70;93.30;;;;;;5006945;28;20388;-86
2022/10/31 08:10:40;;;;;;;1.42;0.80;;;25.60;93.70;;;;;;5005969;28;20489;-86
2022/10/31 08:13:10;;;;;;;1.33;0.80;;;25.50;93.50;;;;;;5014921;28;20379;-86
2022/10/31 08:15:41;;;;;;;3.97;0.90;;;25.60;93.50;;;;;;5015203;28;20894;-85
2022/10/31 08:18:15;;;;;;;2.27;0.83;;;25.60;93.20;;;;;;5011005;28;20411;-87
2022/10/31 08:20:43;;;;;;;4.50;0.80;;;25.80;93.10;;;;;;4991603;28;20383;-85
2022/10/31 08:23:21;;;;;;;2.00;0.60;;;25.80;93.10;;;;;;5020119;28;20379;-85
2022/10/31 08:25:50;;;;;;;1.98;0.80;;;25.80;93.20;;;;;;5026449;28;20416;-85
2022/10/31 08:28:20;;;;;;;2.85;0.88;;;25.70;93.50;;;;;;4987600;28;20414;-85
2022/10/31 08:30:47;;;;;;;2.67;0.80;;;25.70;93.70;;;;;;5014799;28;20442;-87
2022/10/31 08:33:18;;;;;;;2.00;0.70;;;25.60;94.10;;;;;;4984853;28;20464;-86
2022/10/31 08:35:45;;;;;;;1.40;0.73;;;25.50;94.30;;;;;;5004071;28;20398;-85
2022/10/31 08:38:14;;;;;;;2.35;0.65;;;25.60;94.50;;;;;;5001991;28;20381;-85
2022/10/31 08:40:41;;;;;;;0.90;0.80;;;25.50;94.80;;;;;;5010319;28;20389;-84
2022/10/31 08:43:16;;;;;;;3.45;0.70;;;25.40;95.10;;;;;;5009708;28;20438;-86
2022/10/31 08:45:48;;;;;;;1.17;0.70;;;25.30;95.40;;;;;;4981342;28;20369;-86
2022/10/31 08:48:16;;;;;;;1.00;0.70;;;25.20;95.60;;;;;;4994320;28;20412;-86
2022/10/31 08:50:44;;;;;;;3.83;0.60;;;25.20;95.80;;;;;;5002963;28;21114;-85
2022/10/31 08:53:14;;;;;;;2.00;0.70;;;25.10;96.10;;;;;;5018962;28;20399;-86
2022/10/31 08:55:42;;;;;;;1.60;0.63;;;25.40;96.30;;;;;;5012723;28;20786;-84
2022/10/31 08:58:27;;;;;;;3.53;0.70;;;25.00;96.60;;;;;;5019537;28;20443;-84
2022/10/31 09:00:56;;;;;;;1.02;0.70;;;25.00;96.80;;;;;;5024533;28;20400;-84
2022/10/31 09:03:25;;;;;;;2.08;0.70;;;24.90;97.00;;;;;;5016653;28;20404;-85
2022/10/31 09:05:57;;;;;;;1.92;0.60;;;24.80;97.20;;;;;;5001579;28;20412;-86
2022/10/31 09:08:24;;;;;;;1.65;0.70;;;24.80;97.60;;;;;;5007691;28;20482;-85
2022/10/31 09:10:51;;;;;;;3.10;0.70;;;24.70;98.00;;;;;;4997930;28;20446;-85
2022/10/31 09:13:21;;;;;;;1.40;0.53;;;24.60;98.60;;;;;;4998576;28;20396;-84
2022/10/31 09:15:49;;;;;;;2.20;0.60;;;24.50;99.40;;;;;;5002268;28;20401;-87
2022/10/31 09:18:19;;;;;;;3.17;0.80;;;24.00;99.90;;;;;;4994744;28;20416;-86
2022/10/31 09:20:47;;;;;;;1.50;0.70;;;23.80;99.90;;;;;;4997452;28;20940;-87
2022/10/31 09:23:17;;;;;;;1.08;0.80;;;23.60;99.90;;;;;;5000531;28;20483;-86
2022/10/31 09:25:45;;;;;;;1.23;0.70;;;23.40;99.90;;;;;;4992504;28;20414;-85
2022/10/31 09:28:22;;;;;;;0.75;0.60;;;23.30;99.90;;;;;;5017074;28;20968;-86
2022/10/31 09:30:52;;;;;;;0.80;0.60;;;23.40;99.90;;;;;;5012098;28;20401;-86
2022/10/31 09:33:22;;;;;;;0.60;0.60;;;23.40;99.90;;;;;;4999825;28;20393;-86
2022/10/31 09:35:49;;;;;;;0.85;0.70;;;23.40;99.90;;;;;;4996277;28;20896;-85
2022/10/31 09:38:23;;;;;;;0.70;0.70;;;23.40;99.90;;;;;;5000829;28;20404;-85
2022/10/31 09:41:06;;;;;;;0.60;0.60;;;23.40;99.90;;;;;;4997738;28;20386;-84
2022/10/31 09:43:58;;;;;;;0.73;0.60;;;23.40;99.90;;;;;;5007976;28;20389;-85
2022/10/31 09:47:02;;;;;;;0.70;0.70;;;23.40;99.90;;;;;;5079007;22;20444;-86
2022/10/31 09:49:44;;;;;;;0.90;0.63;;;23.40;99.90;;;;;;5031427;28;20391;-86
2022/10/31 09:52:31;;;;;;;0.55;0.55;;;23.40;99.90;;;;;;5044395;28;20365;-84
2022/10/31 09:55:43;;;;;;;0.53;0.53;;;23.40;99.90;;;;;;5204196;22;20497;-87
2022/10/31 09:59:26;;;;;;;1.50;0.60;;;23.50;99.90;;;;;;4961461;28;20395;-86
2022/10/31 10:05:44;;;;;;;0.65;0.50;;;23.60;99.90;;;;;;4867377;29;20465;-86
2022/10/31 10:08:26;;;;;;;0.68;0.60;;;23.50;99.90;;;;;;4868128;29;20412;-87
2022/10/31 10:11:11;;;;;;;0.47;0.47;;;23.60;99.90;;;;;;4868855;29;20482;-84
2022/10/31 10:14:21;;;;;;;0.63;0.52;;;23.50;99.90;;;;;;4868204;29;20448;-85
2022/10/31 10:17:35;;;;;;;0.65;0.60;;;23.50;99.90;;;;;;4865637;29;20404;-87
2022/10/31 10:20:24;;;;;;;0.80;0.50;;;23.50;99.90;;;;;;4867116;29;21289;-86
2022/10/31 10:23:39;;;;;;;0.70;0.40;;;23.50;99.90;;;;;;4869427;29;20389;-86
2022/10/31 10:26:33;;;;;;;0.40;0.40;;;23.50;99.90;;;;;;4872423;29;20388;-85
2022/10/31 10:29:44;;;;;;;2.40;0.70;;;23.40;99.90;;;;;;4869449;29;20390;-86
2022/10/31 10:32:19;;;;;;;0.77;0.60;;;23.20;99.90;;;;;;4872644;29;20403;-86
2022/10/31 10:35:04;;;;;;;1.83;0.80;;;23.10;99.90;;;;;;4874643;29;20481;-85
2022/10/31 10:38:09;;;;;;;2.53;1.10;;;22.80;99.90;;;;;;4907275;29;20393;-87
2022/10/31 10:40:41;;;;;;;2.85;1.20;;;22.50;99.90;;;;;;4902184;29;20492;-87
2022/10/31 10:43:25;;;;;;;1.90;1.10;;;22.30;99.90;;;;;;4954806;29;20368;-86
2022/10/31 10:49:24;;;;;;;1.98;0.90;;;21.90;99.90;;;;;;4952450;29;20384;-87
2022/10/31 10:52:00;;;;;;;2.05;1.02;;;21.70;99.90;;;;;;4963712;29;20384;-85
2022/10/31 10:54:46;;;;;;;5.43;1.20;;;21.50;99.90;;;;;;4960102;28;20400;-83
2022/10/31 10:57:28;;;;;;;2.00;1.02;;;21.40;99.90;;;;;;4961661;29;20387;-86
2022/10/31 11:00:01;;;;;;;3.90;1.30;;;21.40;99.90;;;;;;4931026;29;20420;-84
2022/10/31 11:02:33;;;;;;;2.00;1.10;;;21.30;99.90;;;;;;4995877;28;20434;-87
2022/10/31 11:05:15;;;;;;;3.63;1.27;;;21.20;99.90;;;;;;5035226;28;20721;-86
2022/10/31 11:07:44;;;;;;;3.10;1.17;;;21.20;99.90;;;;;;5024552;28;20382;-87
2022/10/31 11:10:16;;;;;;;3.55;1.40;;;21.10;99.90;;;;;;5023892;28;20383;-87
2022/10/31 11:13:20;;;;;;;2.35;1.20;;;21.10;99.90;;;;;;5023102;28;20403;-85
2022/10/31 11:15:58;;;;;;;1.90;1.10;;;21.00;99.90;;;;;;5011317;28;20375;-85
2022/10/31 11:18:34;;;;;;;2.38;1.00;;;21.00;99.90;;;;;;5016348;28;20431;-87
2022/10/31 11:21:04;;;;;;;1.75;1.00;;;20.90;99.90;;;;;;5016470;28;20433;-86
2022/10/31 11:23:32;;;;;;;1.10;0.90;;;20.90;99.90;;;;;;5013154;28;20379;-86
2022/10/31 11:26:19;;;;;;;1.42;0.80;;;20.80;99.90;;;;;;5011742;28;20391;-86
2022/10/31 11:28:58;;;;;;;1.65;1.00;;;20.80;99.90;;;;;;5011811;28;20386;-85
2022/10/31 11:31:26;;;;;;;0.80;0.80;;;20.70;99.90;;;;;;5005564;28;20721;-86
2022/10/31 11:34:14;;;;;;;1.20;0.90;;;20.70;99.90;;;;;;5018565;28;20410;-86
2022/10/31 11:36:44;;;;;;;0.88;0.80;;;20.70;99.90;;;;;;5007639;28;20412;-86
2022/10/31 11:39:42;;;;;;;1.27;0.82;;;20.60;99.90;;;;;;5030655;28;20900;-86
2022/10/31 11:42:09;;;;;;;1.30;1.00;;;20.60;99.90;;;;;;5011264;28;20409;-86
2022/10/31 11:44:36;;;;;;;1.73;0.90;;;20.60;99.90;;;;;;5011587;28;20873;-86
2022/10/31 11:47:12;;;;;;;1.60;1.00;;;20.50;99.90;;;;;;5011826;28;20433;-86
2022/10/31 11:49:42;;;;;;;1.60;1.08;;;20.50;99.90;;;;;;5026359;28;20401;-86
2022/10/31 11:52:19;;;;;;;2.08;0.90;;;20.40;99.90;;;;;;5026503;28;20387;-88
2022/10/31 11:55:00;;;;;;;1.30;0.90;;;20.30;99.90;;;;;;5011844;28;20414;-86
2022/10/31 11:57:29;;;;;;;3.25;1.00;;;20.20;99.90;;;;;;5012074;28;20442;-86
2022/10/31 11:59:59;;;;;;;1.75;0.93;;;20.20;99.90;;;;;;5010816;28;20415;-85
2022/10/31 12:02:27;;;;;;;1.92;1.00;;;20.20;99.90;;;;;;5011833;28;20889;-86
2022/10/31 12:05:32;;;;;;;1.77;1.10;;;20.20;99.90;;;;;;5011144;28;20391;-88
2022/10/31 12:08:00;;;;;;;1.33;1.00;;;20.10;99.90;;;;;;4989591;28;20399;-86
2022/10/31 12:10:52;;;;;;;1.52;1.00;;;20.10;99.90;;;;;;4981438;28;20407;-87
2022/10/31 12:14:00;;;;;;;1.48;1.05;;;20.10;99.90;;;;;;4948876;29;20411;-86
2022/10/31 12:17:04;;;;;;;2.50;1.20;;;20.10;99.90;;;;;;4912603;29;20413;-87
2022/10/31 12:19:43;;;;;;;2.05;1.17;;;20.00;99.90;;;;;;4912115;29;20427;-87
2022/10/31 12:22:41;;;;;;;2.42;1.10;;;20.00;99.90;;;;;;4912277;29;20392;-88
2022/10/31 12:25:32;;;;;;;2.58;1.30;;;19.90;99.90;;;;;;4909178;29;20399;-86
2022/10/31 12:28:05;;;;;;;2.17;1.17;;;19.90;99.90;;;;;;4913666;29;20407;-86
2022/10/31 12:30:47;;;;;;;1.55;1.20;;;19.90;99.90;;;;;;4916021;29;20426;-86
2022/10/31 12:33:30;;;;;;;1.33;1.20;;;19.80;99.90;;;;;;4915416;29;20435;-85
2022/10/31 12:36:13;;;;;;;1.20;1.10;;;19.80;99.90;;;;;;4919108;29;20369;-89
2022/10/31 12:39:21;;;;;;;1.10;1.00;;;19.80;99.90;;;;;;4915301;29;20418;-88
2022/10/31 12:42:11;;;;;;;1.60;1.10;;;19.80;99.90;;;;;;4916770;29;20399;-86
2022/10/31 12:44:56;;;;;;;2.13;1.20;;;19.80;99.90;;;;;;4919433;29;20401;-88
2022/10/31 12:47:53;;;;;;;1.20;1.10;;;19.70;99.90;;;;;;4935347;29;20394;-86
2022/10/31 12:50:48;;;;;;;1.90;1.10;;;19.80;99.90;;;;;;4943443;29;20726;-86
2022/10/31 12:53:29;;;;;;;1.48;1.10;;;19.80;99.90;;;;;;4978207;28;20743;-88
2022/10/31 12:55:59;;;;;;;1.65;1.00;;;19.80;99.90;;;;;;5029584;28;20751;-87
2022/10/31 12:58:53;;;;;;;1.10;1.00;;;19.80;99.90;;;;;;5013190;28;20441;-87
2022/10/31 13:01:34;;;;;;;2.05;1.15;;;19.80;99.90;;;;;;5014152;28;21157;-85
2022/10/31 13:04:43;;;;;;;1.37;1.10;;;19.80;99.90;;;;;;5014116;28;20388;-86
2022/10/31 13:07:39;;;;;;;1.10;1.00;;;19.80;99.90;;;;;;5010232;28;20430;-88
2022/10/31 13:10:18;;;;;;;1.38;1.10;;;19.80;99.90;;;;;;5011730;28;20379;-85
2022/10/31 13:12:50;;;;;;;1.83;1.05;;;19.70;99.90;;;;;;5014475;28;20743;-86
2022/10/31 13:15:23;;;;;;;2.47;1.17;;;19.70;99.90;;;;;;5014255;28;20390;-87
2022/10/31 13:17:56;;;;;;;2.13;1.23;;;19.70;99.90;;;;;;5014139;28;20391;-87
2022/10/31 13:20:32;;;;;;;1.10;1.00;;;19.70;99.90;;;;;;5014346;28;21038;-87
2022/10/31 13:23:27;;;;;;;1.25;0.90;;;19.60;99.90;;;;;;5006177;28;20445;-87
2022/10/31 13:26:00;;;;;;;2.10;1.17;;;19.70;99.90;;;;;;5014385;28;20742;-86
2022/10/31 13:28:56;;;;;;;1.98;1.08;;;19.80;99.90;;;;;;5014119;28;20391;-88
2022/10/31 13:31:23;;;;;;;1.75;1.10;;;19.90;99.90;;;;;;5005918;28;20387;-85
2022/10/31 13:33:56;;;;;;;2.38;1.10;;;19.90;99.90;;;;;;5017052;28;20396;-85
2022/10/31 13:36:35;;;;;;;1.20;1.10;;;20.00;99.90;;;;;;5013737;28;20402;-86